sensor_id;sensor_type;location;lat;lon;timestamp;P1;durP1;ratioP1;P2;durP2;ratioP2
2388;SDS011;1205;47.984;7.668;2024-01-07T00:01:00;8.47;;;6.90;;
2388;SDS011;1205;47.984;7.668;2024-01-07T00:03:25;7.20;;;6.50;;
2388;SDS011;1205;47.984;7.668;2024-01-07T00:05:51;7.03;;;6.23;;
2388;SDS011;1205;47.984;7.668;2024-01-07T00:08:16;7.33;;;6.57;;
2388;SDS011;1205;47.984;7.668;2024-01-07T00:10:42;8.47;;;6.87;;
2388;SDS011;1205;47.984;7.668;2024-01-07T00:13:08;7.50;;;6.53;;
2388;SDS011;1205;47.984;7.668;2024-01-07T00:15:33;8.47;;;7.43;;
2388;SDS011;1205;47.984;7.668;2024-01-07T00:17:59;7.67;;;6.87;;
2388;SDS011;1205;47.984;7.668;2024-01-07T00:20:24;8.33;;;7.43;;
2388;SDS011;1205;47.984;7.668;2024-01-07T00:22:50;8.80;;;7.33;;
2388;SDS011;1205;47.984;7.668;2024-01-07T00:25:15;12.53;;;8.87;;
2388;SDS011;1205;47.984;7.668;2024-01-07T00:27:43;11.90;;;8.97;;
2388;SDS011;1205;47.984;7.668;2024-01-07T00:30:09;9.00;;;7.13;;
2388;SDS011;1205;47.984;7.668;2024-01-07T00:32:35;9.70;;;7.53;;
2388;SDS011;1205;47.984;7.668;2024-01-07T00:35:00;10.33;;;7.53;;
2388;SDS011;1205;47.984;7.668;2024-01-07T00:37:26;9.23;;;7.57;;
2388;SDS011;1205;47.984;7.668;2024-01-07T00:39:51;10.13;;;7.80;;
2388;SDS011;1205;47.984;7.668;2024-01-07T00:42:17;9.90;;;7.77;;
2388;SDS011;1205;47.984;7.668;2024-01-07T00:44:42;9.03;;;7.80;;
2388;SDS011;1205;47.984;7.668;2024-01-07T00:47:08;8.80;;;7.67;;
2388;SDS011;1205;47.984;7.668;2024-01-07T00:49:33;9.40;;;7.73;;
2388;SDS011;1205;47.984;7.668;2024-01-07T00:51:59;10.50;;;8.17;;
2388;SDS011;1205;47.984;7.668;2024-01-07T00:54:25;10.83;;;8.60;;
2388;SDS011;1205;47.984;7.668;2024-01-07T00:56:50;8.93;;;7.83;;
2388;SDS011;1205;47.984;7.668;2024-01-07T00:59:16;8.73;;;7.57;;
2388;SDS011;1205;47.984;7.668;2024-01-07T01:01:41;11.20;;;8.60;;
2388;SDS011;1205;47.984;7.668;2024-01-07T01:04:07;10.27;;;8.67;;
2388;SDS011;1205;47.984;7.668;2024-01-07T01:06:32;9.67;;;7.80;;
2388;SDS011;1205;47.984;7.668;2024-01-07T01:08:58;9.20;;;7.83;;
2388;SDS011;1205;47.984;7.668;2024-01-07T01:11:23;9.63;;;7.60;;
2388;SDS011;1205;47.984;7.668;2024-01-07T01:13:49;8.70;;;7.80;;
2388;SDS011;1205;47.984;7.668;2024-01-07T01:16:14;11.23;;;8.47;;
2388;SDS011;1205;47.984;7.668;2024-01-07T01:18:40;14.50;;;9.13;;
2388;SDS011;1205;47.984;7.668;2024-01-07T01:21:05;11.00;;;8.73;;
2388;SDS011;1205;47.984;7.668;2024-01-07T01:23:32;8.87;;;7.53;;
2388;SDS011;1205;47.984;7.668;2024-01-07T01:25:58;10.77;;;7.77;;
2388;SDS011;1205;47.984;7.668;2024-01-07T01:28:23;10.77;;;8.23;;
2388;SDS011;1205;47.984;7.668;2024-01-07T01:30:49;11.07;;;8.47;;
2388;SDS011;1205;47.984;7.668;2024-01-07T01:33:14;10.77;;;7.73;;
2388;SDS011;1205;47.984;7.668;2024-01-07T01:35:40;11.83;;;8.57;;
2388;SDS011;1205;47.984;7.668;2024-01-07T01:38:05;8.93;;;7.27;;
2388;SDS011;1205;47.984;7.668;2024-01-07T01:40:31;8.30;;;6.37;;
2388;SDS011;1205;47.984;7.668;2024-01-07T01:42:56;9.80;;;7.10;;
2388;SDS011;1205;47.984;7.668;2024-01-07T01:45:22;8.10;;;6.93;;
2388;SDS011;1205;47.984;7.668;2024-01-07T01:47:48;7.93;;;6.87;;
2388;SDS011;1205;47.984;7.668;2024-01-07T01:50:13;8.93;;;6.70;;
2388;SDS011;1205;47.984;7.668;2024-01-07T01:52:39;8.23;;;6.20;;
2388;SDS011;1205;47.984;7.668;2024-01-07T01:55:05;10.10;;;6.60;;
2388;SDS011;1205;47.984;7.668;2024-01-07T01:57:32;7.70;;;5.90;;
2388;SDS011;1205;47.984;7.668;2024-01-07T02:00:01;11.90;;;8.23;;
2388;SDS011;1205;47.984;7.668;2024-01-07T02:02:30;9.73;;;7.27;;
2388;SDS011;1205;47.984;7.668;2024-01-07T02:04:59;14.33;;;8.67;;
2388;SDS011;1205;47.984;7.668;2024-01-07T02:07:28;9.97;;;6.77;;
2388;SDS011;1205;47.984;7.668;2024-01-07T02:09:55;8.70;;;6.23;;
2388;SDS011;1205;47.984;7.668;2024-01-07T02:12:21;8.87;;;7.10;;
2388;SDS011;1205;47.984;7.668;2024-01-07T02:14:46;10.53;;;7.47;;
2388;SDS011;1205;47.984;7.668;2024-01-07T02:17:12;7.17;;;5.80;;
2388;SDS011;1205;47.984;7.668;2024-01-07T02:19:37;7.00;;;5.50;;
2388;SDS011;1205;47.984;7.668;2024-01-07T02:22:03;7.73;;;5.93;;
2388;SDS011;1205;47.984;7.668;2024-01-07T02:24:28;7.47;;;5.20;;
2388;SDS011;1205;47.984;7.668;2024-01-07T02:26:55;5.23;;;4.70;;
2388;SDS011;1205;47.984;7.668;2024-01-07T02:29:21;5.90;;;4.97;;
2388;SDS011;1205;47.984;7.668;2024-01-07T02:31:47;6.57;;;5.17;;
2388;SDS011;1205;47.984;7.668;2024-01-07T02:34:12;5.80;;;5.20;;
2388;SDS011;1205;47.984;7.668;2024-01-07T02:36:38;6.57;;;5.53;;
2388;SDS011;1205;47.984;7.668;2024-01-07T02:39:04;5.33;;;4.83;;
2388;SDS011;1205;47.984;7.668;2024-01-07T02:41:29;5.67;;;5.13;;
2388;SDS011;1205;47.984;7.668;2024-01-07T02:43:55;8.27;;;5.20;;
2388;SDS011;1205;47.984;7.668;2024-01-07T02:46:20;6.60;;;5.00;;
2388;SDS011;1205;47.984;7.668;2024-01-07T02:48:47;5.73;;;5.07;;
2388;SDS011;1205;47.984;7.668;2024-01-07T02:51:12;6.97;;;5.30;;
2388;SDS011;1205;47.984;7.668;2024-01-07T02:53:38;6.57;;;5.23;;
2388;SDS011;1205;47.984;7.668;2024-01-07T02:56:03;4.70;;;4.30;;
2388;SDS011;1205;47.984;7.668;2024-01-07T02:58:29;4.80;;;4.20;;
2388;SDS011;1205;47.984;7.668;2024-01-07T03:00:55;4.83;;;4.33;;
2388;SDS011;1205;47.984;7.668;2024-01-07T03:03:20;3.77;;;3.50;;
2388;SDS011;1205;47.984;7.668;2024-01-07T03:05:46;4.70;;;4.10;;
2388;SDS011;1205;47.984;7.668;2024-01-07T03:08:11;4.03;;;3.73;;
2388;SDS011;1205;47.984;7.668;2024-01-07T03:10:37;4.00;;;3.70;;
2388;SDS011;1205;47.984;7.668;2024-01-07T03:13:03;4.80;;;4.10;;
2388;SDS011;1205;47.984;7.668;2024-01-07T03:15:30;3.67;;;3.37;;
2388;SDS011;1205;47.984;7.668;2024-01-07T03:17:57;4.20;;;3.80;;
2388;SDS011;1205;47.984;7.668;2024-01-07T03:20:22;5.03;;;3.43;;
2388;SDS011;1205;47.984;7.668;2024-01-07T03:22:48;4.40;;;4.00;;
2388;SDS011;1205;47.984;7.668;2024-01-07T03:25:13;6.07;;;4.53;;
2388;SDS011;1205;47.984;7.668;2024-01-07T03:27:39;7.40;;;4.93;;
2388;SDS011;1205;47.984;7.668;2024-01-07T03:30:05;5.07;;;4.57;;
2388;SDS011;1205;47.984;7.668;2024-01-07T03:32:31;5.93;;;5.20;;
2388;SDS011;1205;47.984;7.668;2024-01-07T03:34:56;6.60;;;4.90;;
2388;SDS011;1205;47.984;7.668;2024-01-07T03:37:22;6.40;;;5.30;;
2388;SDS011;1205;47.984;7.668;2024-01-07T03:39:48;7.20;;;6.03;;
2388;SDS011;1205;47.984;7.668;2024-01-07T03:42:14;6.77;;;5.20;;
2388;SDS011;1205;47.984;7.668;2024-01-07T03:44:39;8.90;;;5.57;;
2388;SDS011;1205;47.984;7.668;2024-01-07T03:47:05;9.20;;;6.33;;
2388;SDS011;1205;47.984;7.668;2024-01-07T03:49:31;9.57;;;6.30;;
2388;SDS011;1205;47.984;7.668;2024-01-07T03:51:57;12.57;;;6.73;;
2388;SDS011;1205;47.984;7.668;2024-01-07T03:54:22;11.33;;;7.70;;
2388;SDS011;1205;47.984;7.668;2024-01-07T03:56:48;12.40;;;8.10;;
2388;SDS011;1205;47.984;7.668;2024-01-07T03:59:13;13.67;;;8.67;;
2388;SDS011;1205;47.984;7.668;2024-01-07T04:01:39;10.00;;;8.10;;
2388;SDS011;1205;47.984;7.668;2024-01-07T04:04:05;9.57;;;7.27;;
2388;SDS011;1205;47.984;7.668;2024-01-07T04:06:30;10.03;;;7.90;;
2388;SDS011;1205;47.984;7.668;2024-01-07T04:08:56;12.73;;;8.07;;
2388;SDS011;1205;47.984;7.668;2024-01-07T04:11:21;10.17;;;7.23;;
2388;SDS011;1205;47.984;7.668;2024-01-07T04:13:47;11.50;;;8.30;;
2388;SDS011;1205;47.984;7.668;2024-01-07T04:16:18;12.90;;;9.00;;
2388;SDS011;1205;47.984;7.668;2024-01-07T04:18:45;11.93;;;8.20;;
2388;SDS011;1205;47.984;7.668;2024-01-07T04:21:11;13.00;;;8.17;;
2388;SDS011;1205;47.984;7.668;2024-01-07T04:23:40;10.23;;;8.40;;
2388;SDS011;1205;47.984;7.668;2024-01-07T04:26:06;12.43;;;8.43;;
2388;SDS011;1205;47.984;7.668;2024-01-07T04:28:32;10.27;;;8.13;;
2388;SDS011;1205;47.984;7.668;2024-01-07T04:30:58;10.97;;;8.70;;
2388;SDS011;1205;47.984;7.668;2024-01-07T04:33:23;10.77;;;7.93;;
2388;SDS011;1205;47.984;7.668;2024-01-07T04:35:49;10.43;;;7.87;;
2388;SDS011;1205;47.984;7.668;2024-01-07T04:38:15;11.10;;;7.37;;
2388;SDS011;1205;47.984;7.668;2024-01-07T04:40:40;11.20;;;7.63;;
2388;SDS011;1205;47.984;7.668;2024-01-07T04:43:06;9.80;;;7.53;;
2388;SDS011;1205;47.984;7.668;2024-01-07T04:45:31;10.43;;;7.20;;
2388;SDS011;1205;47.984;7.668;2024-01-07T04:47:57;12.43;;;8.43;;
2388;SDS011;1205;47.984;7.668;2024-01-07T04:50:22;11.03;;;7.60;;
2388;SDS011;1205;47.984;7.668;2024-01-07T04:52:48;9.10;;;7.13;;
2388;SDS011;1205;47.984;7.668;2024-01-07T04:55:13;10.00;;;7.23;;
2388;SDS011;1205;47.984;7.668;2024-01-07T04:57:39;8.73;;;6.63;;
2388;SDS011;1205;47.984;7.668;2024-01-07T05:00:05;9.70;;;7.50;;
2388;SDS011;1205;47.984;7.668;2024-01-07T05:02:31;9.37;;;6.83;;
2388;SDS011;1205;47.984;7.668;2024-01-07T05:04:56;10.00;;;6.80;;
2388;SDS011;1205;47.984;7.668;2024-01-07T05:07:22;7.20;;;6.00;;
2388;SDS011;1205;47.984;7.668;2024-01-07T05:09:48;8.57;;;6.30;;
2388;SDS011;1205;47.984;7.668;2024-01-07T05:12:13;6.87;;;5.90;;
2388;SDS011;1205;47.984;7.668;2024-01-07T05:14:40;7.00;;;6.30;;
2388;SDS011;1205;47.984;7.668;2024-01-07T05:17:07;6.50;;;5.80;;
2388;SDS011;1205;47.984;7.668;2024-01-07T05:19:33;7.27;;;6.53;;
2388;SDS011;1205;47.984;7.668;2024-01-07T05:21:59;8.60;;;6.60;;
2388;SDS011;1205;47.984;7.668;2024-01-07T05:24:24;7.27;;;6.07;;
2388;SDS011;1205;47.984;7.668;2024-01-07T05:26:50;5.93;;;4.70;;
2388;SDS011;1205;47.984;7.668;2024-01-07T05:29:16;7.50;;;6.00;;
2388;SDS011;1205;47.984;7.668;2024-01-07T05:31:41;6.63;;;5.93;;
2388;SDS011;1205;47.984;7.668;2024-01-07T05:34:07;5.60;;;5.10;;
2388;SDS011;1205;47.984;7.668;2024-01-07T05:36:33;7.93;;;5.97;;
2388;SDS011;1205;47.984;7.668;2024-01-07T05:38:58;4.73;;;4.33;;
2388;SDS011;1205;47.984;7.668;2024-01-07T05:41:24;8.03;;;5.80;;
2388;SDS011;1205;47.984;7.668;2024-01-07T05:43:50;6.20;;;5.10;;
2388;SDS011;1205;47.984;7.668;2024-01-07T05:46:16;6.47;;;5.33;;
2388;SDS011;1205;47.984;7.668;2024-01-07T05:48:42;6.43;;;5.10;;
2388;SDS011;1205;47.984;7.668;2024-01-07T05:51:11;6.67;;;5.37;;
2388;SDS011;1205;47.984;7.668;2024-01-07T05:53:38;8.40;;;6.47;;
2388;SDS011;1205;47.984;7.668;2024-01-07T05:56:04;7.23;;;5.57;;
2388;SDS011;1205;47.984;7.668;2024-01-07T05:58:30;11.37;;;7.30;;
2388;SDS011;1205;47.984;7.668;2024-01-07T06:00:56;12.43;;;7.20;;
2388;SDS011;1205;47.984;7.668;2024-01-07T06:03:22;7.93;;;6.47;;
2388;SDS011;1205;47.984;7.668;2024-01-07T06:05:47;10.10;;;7.20;;
2388;SDS011;1205;47.984;7.668;2024-01-07T06:08:13;8.73;;;7.07;;
2388;SDS011;1205;47.984;7.668;2024-01-07T06:10:39;9.00;;;6.90;;
2388;SDS011;1205;47.984;7.668;2024-01-07T06:13:05;10.23;;;7.60;;
2388;SDS011;1205;47.984;7.668;2024-01-07T06:15:31;9.53;;;7.33;;
2388;SDS011;1205;47.984;7.668;2024-01-07T06:17:56;8.37;;;6.60;;
2388;SDS011;1205;47.984;7.668;2024-01-07T06:20:22;10.40;;;6.80;;
2388;SDS011;1205;47.984;7.668;2024-01-07T06:22:48;11.20;;;7.00;;
2388;SDS011;1205;47.984;7.668;2024-01-07T06:25:14;11.03;;;7.73;;
2388;SDS011;1205;47.984;7.668;2024-01-07T06:27:39;14.30;;;8.90;;
2388;SDS011;1205;47.984;7.668;2024-01-07T06:30:06;11.50;;;8.07;;
2388;SDS011;1205;47.984;7.668;2024-01-07T06:32:33;13.17;;;7.83;;
2388;SDS011;1205;47.984;7.668;2024-01-07T06:34:58;13.90;;;8.70;;
2388;SDS011;1205;47.984;7.668;2024-01-07T06:37:24;15.53;;;8.87;;
2388;SDS011;1205;47.984;7.668;2024-01-07T06:39:50;11.40;;;7.03;;
2388;SDS011;1205;47.984;7.668;2024-01-07T06:42:16;12.77;;;8.47;;
2388;SDS011;1205;47.984;7.668;2024-01-07T06:44:42;16.03;;;8.80;;
2388;SDS011;1205;47.984;7.668;2024-01-07T06:47:07;13.40;;;7.40;;
2388;SDS011;1205;47.984;7.668;2024-01-07T06:49:33;17.70;;;8.00;;
2388;SDS011;1205;47.984;7.668;2024-01-07T06:51:58;11.70;;;7.27;;
2388;SDS011;1205;47.984;7.668;2024-01-07T06:54:24;14.23;;;6.83;;
2388;SDS011;1205;47.984;7.668;2024-01-07T06:56:50;9.27;;;5.77;;
2388;SDS011;1205;47.984;7.668;2024-01-07T06:59:16;8.27;;;5.70;;
2388;SDS011;1205;47.984;7.668;2024-01-07T07:01:41;9.03;;;6.00;;
2388;SDS011;1205;47.984;7.668;2024-01-07T07:04:07;6.47;;;4.87;;
2388;SDS011;1205;47.984;7.668;2024-01-07T07:06:32;6.37;;;4.50;;
2388;SDS011;1205;47.984;7.668;2024-01-07T07:08:59;4.20;;;3.23;;
2388;SDS011;1205;47.984;7.668;2024-01-07T07:11:25;5.10;;;4.13;;
2388;SDS011;1205;47.984;7.668;2024-01-07T07:13:50;5.40;;;4.47;;
2388;SDS011;1205;47.984;7.668;2024-01-07T07:16:16;4.17;;;3.80;;
2388;SDS011;1205;47.984;7.668;2024-01-07T07:18:41;8.30;;;5.50;;
2388;SDS011;1205;47.984;7.668;2024-01-07T07:21:07;16.33;;;9.20;;
2388;SDS011;1205;47.984;7.668;2024-01-07T07:23:33;10.73;;;6.00;;
2388;SDS011;1205;47.984;7.668;2024-01-07T07:25:58;8.37;;;6.13;;
2388;SDS011;1205;47.984;7.668;2024-01-07T07:28:24;9.10;;;7.17;;
2388;SDS011;1205;47.984;7.668;2024-01-07T07:30:49;8.63;;;6.30;;
2388;SDS011;1205;47.984;7.668;2024-01-07T07:33:15;11.83;;;6.83;;
2388;SDS011;1205;47.984;7.668;2024-01-07T07:35:40;9.67;;;6.60;;
2388;SDS011;1205;47.984;7.668;2024-01-07T07:38:07;10.97;;;7.20;;
2388;SDS011;1205;47.984;7.668;2024-01-07T07:40:32;10.10;;;6.27;;
2388;SDS011;1205;47.984;7.668;2024-01-07T07:42:58;10.47;;;7.00;;
2388;SDS011;1205;47.984;7.668;2024-01-07T07:45:23;11.93;;;7.13;;
2388;SDS011;1205;47.984;7.668;2024-01-07T07:47:49;8.50;;;5.77;;
2388;SDS011;1205;47.984;7.668;2024-01-07T07:50:14;10.57;;;6.93;;
2388;SDS011;1205;47.984;7.668;2024-01-07T07:52:43;13.93;;;7.80;;
2388;SDS011;1205;47.984;7.668;2024-01-07T07:55:09;12.27;;;7.90;;
2388;SDS011;1205;47.984;7.668;2024-01-07T07:57:35;12.27;;;8.70;;
2388;SDS011;1205;47.984;7.668;2024-01-07T08:00:02;14.13;;;7.87;;
2388;SDS011;1205;47.984;7.668;2024-01-07T08:02:30;12.67;;;7.60;;
2388;SDS011;1205;47.984;7.668;2024-01-07T08:04:55;12.83;;;7.70;;
2388;SDS011;1205;47.984;7.668;2024-01-07T08:07:21;11.10;;;7.50;;
2388;SDS011;1205;47.984;7.668;2024-01-07T08:09:46;8.43;;;6.20;;
2388;SDS011;1205;47.984;7.668;2024-01-07T08:12:12;7.90;;;5.90;;
2388;SDS011;1205;47.984;7.668;2024-01-07T08:14:38;8.73;;;6.40;;
2388;SDS011;1205;47.984;7.668;2024-01-07T08:17:06;8.70;;;6.07;;
2388;SDS011;1205;47.984;7.668;2024-01-07T08:19:32;7.77;;;6.23;;
2388;SDS011;1205;47.984;7.668;2024-01-07T08:21:58;9.30;;;5.30;;
2388;SDS011;1205;47.984;7.668;2024-01-07T08:24:23;10.57;;;6.50;;
2388;SDS011;1205;47.984;7.668;2024-01-07T08:26:49;8.20;;;5.80;;
2388;SDS011;1205;47.984;7.668;2024-01-07T08:29:15;8.07;;;5.80;;
2388;SDS011;1205;47.984;7.668;2024-01-07T08:31:40;10.03;;;7.30;;
2388;SDS011;1205;47.984;7.668;2024-01-07T08:34:07;8.60;;;6.73;;
2388;SDS011;1205;47.984;7.668;2024-01-07T08:36:33;11.23;;;6.90;;
2388;SDS011;1205;47.984;7.668;2024-01-07T08:38:58;11.27;;;7.70;;
2388;SDS011;1205;47.984;7.668;2024-01-07T08:41:25;9.97;;;6.40;;
2388;SDS011;1205;47.984;7.668;2024-01-07T08:43:50;11.07;;;7.40;;
2388;SDS011;1205;47.984;7.668;2024-01-07T08:46:16;11.53;;;7.70;;
2388;SDS011;1205;47.984;7.668;2024-01-07T08:48:42;12.00;;;8.13;;
2388;SDS011;1205;47.984;7.668;2024-01-07T08:51:07;13.80;;;8.70;;
2388;SDS011;1205;47.984;7.668;2024-01-07T08:53:33;12.03;;;8.00;;
2388;SDS011;1205;47.984;7.668;2024-01-07T08:55:58;10.20;;;7.10;;
2388;SDS011;1205;47.984;7.668;2024-01-07T08:58:24;17.00;;;8.87;;
2388;SDS011;1205;47.984;7.668;2024-01-07T09:00:50;13.40;;;8.40;;
2388;SDS011;1205;47.984;7.668;2024-01-07T09:03:16;13.40;;;9.37;;
2388;SDS011;1205;47.984;7.668;2024-01-07T09:05:43;15.50;;;8.60;;
2388;SDS011;1205;47.984;7.668;2024-01-07T09:08:08;13.30;;;8.97;;
2388;SDS011;1205;47.984;7.668;2024-01-07T09:10:36;17.47;;;9.47;;
2388;SDS011;1205;47.984;7.668;2024-01-07T09:13:02;13.67;;;8.33;;
2388;SDS011;1205;47.984;7.668;2024-01-07T09:15:28;16.70;;;10.47;;
2388;SDS011;1205;47.984;7.668;2024-01-07T09:17:54;20.50;;;11.90;;
2388;SDS011;1205;47.984;7.668;2024-01-07T09:20:19;21.70;;;11.87;;
2388;SDS011;1205;47.984;7.668;2024-01-07T09:22:45;15.03;;;9.33;;
2388;SDS011;1205;47.984;7.668;2024-01-07T09:25:10;19.70;;;11.63;;
2388;SDS011;1205;47.984;7.668;2024-01-07T09:27:36;17.27;;;10.83;;
2388;SDS011;1205;47.984;7.668;2024-01-07T09:30:02;17.50;;;10.10;;
2388;SDS011;1205;47.984;7.668;2024-01-07T09:32:28;14.90;;;10.00;;
2388;SDS011;1205;47.984;7.668;2024-01-07T09:34:53;13.37;;;9.50;;
2388;SDS011;1205;47.984;7.668;2024-01-07T09:37:19;15.77;;;10.50;;
2388;SDS011;1205;47.984;7.668;2024-01-07T09:39:45;15.73;;;10.60;;
2388;SDS011;1205;47.984;7.668;2024-01-07T09:42:14;18.13;;;10.77;;
2388;SDS011;1205;47.984;7.668;2024-01-07T09:44:41;18.27;;;11.27;;
2388;SDS011;1205;47.984;7.668;2024-01-07T09:47:10;18.60;;;10.80;;
2388;SDS011;1205;47.984;7.668;2024-01-07T09:49:36;17.60;;;11.93;;
2388;SDS011;1205;47.984;7.668;2024-01-07T09:52:03;14.30;;;9.40;;
2388;SDS011;1205;47.984;7.668;2024-01-07T09:54:30;13.37;;;9.23;;
2388;SDS011;1205;47.984;7.668;2024-01-07T09:57:00;14.20;;;10.10;;
2388;SDS011;1205;47.984;7.668;2024-01-07T09:59:29;13.93;;;9.30;;
2388;SDS011;1205;47.984;7.668;2024-01-07T10:01:56;15.50;;;9.30;;
2388;SDS011;1205;47.984;7.668;2024-01-07T10:04:25;14.17;;;8.93;;
2388;SDS011;1205;47.984;7.668;2024-01-07T10:06:58;14.73;;;8.77;;
2388;SDS011;1205;47.984;7.668;2024-01-07T10:09:24;13.67;;;9.70;;
2388;SDS011;1205;47.984;7.668;2024-01-07T10:11:54;14.67;;;10.37;;
2388;SDS011;1205;47.984;7.668;2024-01-07T10:14:19;14.03;;;9.83;;
2388;SDS011;1205;47.984;7.668;2024-01-07T10:16:49;13.07;;;8.90;;
2388;SDS011;1205;47.984;7.668;2024-01-07T10:19:22;11.40;;;7.83;;
2388;SDS011;1205;47.984;7.668;2024-01-07T10:21:58;12.93;;;8.90;;
2388;SDS011;1205;47.984;7.668;2024-01-07T10:24:25;15.03;;;9.47;;
2388;SDS011;1205;47.984;7.668;2024-01-07T10:26:51;15.37;;;9.70;;
2388;SDS011;1205;47.984;7.668;2024-01-07T10:29:17;18.33;;;8.60;;
2388;SDS011;1205;47.984;7.668;2024-01-07T10:31:43;11.63;;;8.77;;
2388;SDS011;1205;47.984;7.668;2024-01-07T10:34:09;12.90;;;8.50;;
2388;SDS011;1205;47.984;7.668;2024-01-07T10:36:35;11.73;;;8.60;;
2388;SDS011;1205;47.984;7.668;2024-01-07T10:39:02;14.17;;;8.90;;
2388;SDS011;1205;47.984;7.668;2024-01-07T10:41:28;13.77;;;9.20;;
2388;SDS011;1205;47.984;7.668;2024-01-07T10:43:55;10.83;;;7.63;;
2388;SDS011;1205;47.984;7.668;2024-01-07T10:46:21;13.73;;;9.13;;
2388;SDS011;1205;47.984;7.668;2024-01-07T10:48:59;11.30;;;8.20;;
2388;SDS011;1205;47.984;7.668;2024-01-07T10:51:38;12.97;;;7.40;;
2388;SDS011;1205;47.984;7.668;2024-01-07T10:54:05;9.50;;;7.40;;
2388;SDS011;1205;47.984;7.668;2024-01-07T10:56:33;12.07;;;7.40;;
2388;SDS011;1205;47.984;7.668;2024-01-07T10:59:13;10.60;;;7.30;;
2388;SDS011;1205;47.984;7.668;2024-01-07T11:01:40;8.93;;;6.90;;
2388;SDS011;1205;47.984;7.668;2024-01-07T11:04:22;12.07;;;7.50;;
2388;SDS011;1205;47.984;7.668;2024-01-07T11:07:16;13.53;;;8.73;;
2388;SDS011;1205;47.984;7.668;2024-01-07T11:10:08;9.10;;;6.60;;
2388;SDS011;1205;47.984;7.668;2024-01-07T11:12:38;9.70;;;6.60;;
2388;SDS011;1205;47.984;7.668;2024-01-07T11:15:04;10.70;;;6.80;;
2388;SDS011;1205;47.984;7.668;2024-01-07T11:20:01;11.43;;;7.00;;
2388;SDS011;1205;47.984;7.668;2024-01-07T11:22:31;8.93;;;6.43;;
2388;SDS011;1205;47.984;7.668;2024-01-07T11:24:58;9.17;;;6.83;;
2388;SDS011;1205;47.984;7.668;2024-01-07T11:27:28;13.50;;;7.67;;
2388;SDS011;1205;47.984;7.668;2024-01-07T11:30:08;11.83;;;7.37;;
2388;SDS011;1205;47.984;7.668;2024-01-07T11:32:44;9.23;;;6.70;;
2388;SDS011;1205;47.984;7.668;2024-01-07T11:35:12;9.63;;;7.70;;
2388;SDS011;1205;47.984;7.668;2024-01-07T11:37:38;10.77;;;6.57;;
2388;SDS011;1205;47.984;7.668;2024-01-07T11:40:04;10.37;;;6.70;;
2388;SDS011;1205;47.984;7.668;2024-01-07T11:42:31;9.63;;;6.57;;
2388;SDS011;1205;47.984;7.668;2024-01-07T11:44:57;8.77;;;6.83;;
2388;SDS011;1205;47.984;7.668;2024-01-07T11:47:23;10.63;;;6.87;;
2388;SDS011;1205;47.984;7.668;2024-01-07T11:49:52;10.50;;;6.80;;
2388;SDS011;1205;47.984;7.668;2024-01-07T11:52:18;11.93;;;7.23;;
2388;SDS011;1205;47.984;7.668;2024-01-07T11:54:45;12.43;;;8.50;;
2388;SDS011;1205;47.984;7.668;2024-01-07T11:57:14;9.73;;;6.70;;
2388;SDS011;1205;47.984;7.668;2024-01-07T11:59:39;8.03;;;6.43;;
2388;SDS011;1205;47.984;7.668;2024-01-07T12:02:05;6.87;;;5.37;;
2388;SDS011;1205;47.984;7.668;2024-01-07T12:04:32;8.80;;;6.63;;
2388;SDS011;1205;47.984;7.668;2024-01-07T12:06:59;7.23;;;5.40;;
2388;SDS011;1205;47.984;7.668;2024-01-07T12:09:25;8.67;;;7.50;;
2388;SDS011;1205;47.984;7.668;2024-01-07T12:11:51;7.03;;;5.97;;
2388;SDS011;1205;47.984;7.668;2024-01-07T12:14:17;6.20;;;5.23;;
2388;SDS011;1205;47.984;7.668;2024-01-07T12:16:44;8.83;;;6.00;;
2388;SDS011;1205;47.984;7.668;2024-01-07T12:19:10;11.37;;;7.47;;
2388;SDS011;1205;47.984;7.668;2024-01-07T12:21:36;14.50;;;9.63;;
2388;SDS011;1205;47.984;7.668;2024-01-07T12:24:03;11.60;;;8.57;;
2388;SDS011;1205;47.984;7.668;2024-01-07T12:26:29;10.03;;;7.80;;
2388;SDS011;1205;47.984;7.668;2024-01-07T12:28:57;8.23;;;6.60;;
2388;SDS011;1205;47.984;7.668;2024-01-07T12:31:29;8.43;;;7.07;;
2388;SDS011;1205;47.984;7.668;2024-01-07T12:33:56;8.67;;;5.97;;
2388;SDS011;1205;47.984;7.668;2024-01-07T12:36:22;7.90;;;6.60;;
2388;SDS011;1205;47.984;7.668;2024-01-07T12:38:48;11.60;;;7.60;;
2388;SDS011;1205;47.984;7.668;2024-01-07T12:41:16;12.03;;;6.80;;
2388;SDS011;1205;47.984;7.668;2024-01-07T12:43:42;8.57;;;6.80;;
2388;SDS011;1205;47.984;7.668;2024-01-07T12:46:08;7.50;;;6.70;;
2388;SDS011;1205;47.984;7.668;2024-01-07T12:48:33;7.00;;;6.00;;
2388;SDS011;1205;47.984;7.668;2024-01-07T12:50:59;8.10;;;6.60;;
2388;SDS011;1205;47.984;7.668;2024-01-07T12:53:26;7.40;;;6.70;;
2388;SDS011;1205;47.984;7.668;2024-01-07T12:55:52;6.83;;;6.10;;
2388;SDS011;1205;47.984;7.668;2024-01-07T12:58:18;9.10;;;6.30;;
2388;SDS011;1205;47.984;7.668;2024-01-07T13:00:43;8.13;;;6.90;;
2388;SDS011;1205;47.984;7.668;2024-01-07T13:03:09;7.53;;;6.73;;
2388;SDS011;1205;47.984;7.668;2024-01-07T13:05:42;9.30;;;6.40;;
2388;SDS011;1205;47.984;7.668;2024-01-07T13:08:11;9.03;;;7.33;;
2388;SDS011;1205;47.984;7.668;2024-01-07T13:10:38;8.23;;;6.40;;
2388;SDS011;1205;47.984;7.668;2024-01-07T13:13:04;8.03;;;5.97;;
2388;SDS011;1205;47.984;7.668;2024-01-07T13:15:30;8.83;;;7.17;;
2388;SDS011;1205;47.984;7.668;2024-01-07T13:17:56;7.73;;;6.87;;
2388;SDS011;1205;47.984;7.668;2024-01-07T13:20:22;8.77;;;7.47;;
2388;SDS011;1205;47.984;7.668;2024-01-07T13:22:47;13.20;;;7.60;;
2388;SDS011;1205;47.984;7.668;2024-01-07T13:25:13;9.50;;;6.47;;
2388;SDS011;1205;47.984;7.668;2024-01-07T13:27:39;11.60;;;6.73;;
2388;SDS011;1205;47.984;7.668;2024-01-07T13:30:04;11.80;;;7.07;;
2388;SDS011;1205;47.984;7.668;2024-01-07T13:32:31;8.60;;;6.70;;
2388;SDS011;1205;47.984;7.668;2024-01-07T13:35:01;10.43;;;6.87;;
2388;SDS011;1205;47.984;7.668;2024-01-07T13:37:27;11.07;;;7.03;;
2388;SDS011;1205;47.984;7.668;2024-01-07T13:39:52;10.97;;;7.00;;
2388;SDS011;1205;47.984;7.668;2024-01-07T13:42:18;9.10;;;7.47;;
2388;SDS011;1205;47.984;7.668;2024-01-07T13:44:44;8.67;;;6.77;;
2388;SDS011;1205;47.984;7.668;2024-01-07T13:47:11;10.43;;;7.17;;
2388;SDS011;1205;47.984;7.668;2024-01-07T13:49:39;9.20;;;7.33;;
2388;SDS011;1205;47.984;7.668;2024-01-07T13:52:05;11.27;;;7.57;;
2388;SDS011;1205;47.984;7.668;2024-01-07T13:54:31;11.17;;;6.23;;
2388;SDS011;1205;47.984;7.668;2024-01-07T13:56:56;8.90;;;6.10;;
2388;SDS011;1205;47.984;7.668;2024-01-07T13:59:22;8.77;;;5.93;;
2388;SDS011;1205;47.984;7.668;2024-01-07T14:01:48;8.87;;;6.03;;
2388;SDS011;1205;47.984;7.668;2024-01-07T14:04:14;9.03;;;6.30;;
2388;SDS011;1205;47.984;7.668;2024-01-07T14:06:40;7.93;;;6.37;;
2388;SDS011;1205;47.984;7.668;2024-01-07T14:09:06;7.00;;;6.27;;
2388;SDS011;1205;47.984;7.668;2024-01-07T14:11:33;7.27;;;5.87;;
2388;SDS011;1205;47.984;7.668;2024-01-07T14:13:59;7.30;;;5.70;;
2388;SDS011;1205;47.984;7.668;2024-01-07T14:16:26;7.23;;;5.90;;
2388;SDS011;1205;47.984;7.668;2024-01-07T14:18:52;7.47;;;6.27;;
2388;SDS011;1205;47.984;7.668;2024-01-07T14:21:17;6.87;;;5.30;;
2388;SDS011;1205;47.984;7.668;2024-01-07T14:23:43;8.57;;;6.10;;
2388;SDS011;1205;47.984;7.668;2024-01-07T14:26:09;5.60;;;5.10;;
2388;SDS011;1205;47.984;7.668;2024-01-07T14:28:34;6.60;;;5.43;;
2388;SDS011;1205;47.984;7.668;2024-01-07T14:31:00;6.70;;;5.30;;
2388;SDS011;1205;47.984;7.668;2024-01-07T14:33:26;8.23;;;5.10;;
2388;SDS011;1205;47.984;7.668;2024-01-07T14:35:52;6.13;;;4.80;;
2388;SDS011;1205;47.984;7.668;2024-01-07T14:38:18;5.03;;;4.57;;
2388;SDS011;1205;47.984;7.668;2024-01-07T14:40:44;8.63;;;5.90;;
2388;SDS011;1205;47.984;7.668;2024-01-07T14:43:11;8.97;;;5.40;;
2388;SDS011;1205;47.984;7.668;2024-01-07T14:45:37;7.23;;;5.30;;
2388;SDS011;1205;47.984;7.668;2024-01-07T14:48:03;4.70;;;4.30;;
2388;SDS011;1205;47.984;7.668;2024-01-07T14:50:29;4.13;;;3.77;;
2388;SDS011;1205;47.984;7.668;2024-01-07T14:52:55;4.93;;;4.50;;
2388;SDS011;1205;47.984;7.668;2024-01-07T14:55:20;3.87;;;3.57;;
2388;SDS011;1205;47.984;7.668;2024-01-07T14:57:46;4.07;;;3.70;;
2388;SDS011;1205;47.984;7.668;2024-01-07T15:00:12;4.23;;;3.93;;
2388;SDS011;1205;47.984;7.668;2024-01-07T15:02:38;4.60;;;4.20;;
2388;SDS011;1205;47.984;7.668;2024-01-07T15:05:04;4.87;;;4.10;;